sensor_id;sensor_type;location;lat;lon;timestamp;P1;durP1;ratioP1;P2;durP2;ratioP2
12908;SDS011;6522;49.622;6.126;2024-03-08T00:00:47;31.83;;;17.27;;
12908;SDS011;6522;49.622;6.126;2024-03-08T00:03:34;20.45;;;16.48;;
12908;SDS011;6522;49.622;6.126;2024-03-08T00:06:20;27.37;;;19.55;;
12908;SDS011;6522;49.622;6.126;2024-03-08T00:09:07;24.02;;;16.83;;
12908;SDS011;6522;49.622;6.126;2024-03-08T00:11:54;25.90;;;20.25;;
12908;SDS011;6522;49.622;6.126;2024-03-08T00:14:41;28.12;;;18.02;;
12908;SDS011;6522;49.622;6.126;2024-03-08T00:17:28;25.27;;;19.35;;
12908;SDS011;6522;49.622;6.126;2024-03-08T00:20:15;25.55;;;19.65;;
12908;SDS011;6522;49.622;6.126;2024-03-08T00:23:01;22.10;;;17.45;;
12908;SDS011;6522;49.622;6.126;2024-03-08T00:25:48;23.58;;;19.12;;
12908;SDS011;6522;49.622;6.126;2024-03-08T00:28:34;23.48;;;18.27;;
12908;SDS011;6522;49.622;6.126;2024-03-08T00:31:21;25.55;;;19.20;;
12908;SDS011;6522;49.622;6.126;2024-03-08T00:34:07;26.12;;;18.30;;
12908;SDS011;6522;49.622;6.126;2024-03-08T00:36:54;25.12;;;17.27;;
12908;SDS011;6522;49.622;6.126;2024-03-08T00:39:40;28.65;;;18.87;;
12908;SDS011;6522;49.622;6.126;2024-03-08T00:42:27;22.92;;;18.08;;
12908;SDS011;6522;49.622;6.126;2024-03-08T00:45:14;22.85;;;17.15;;
12908;SDS011;6522;49.622;6.126;2024-03-08T00:48:01;25.17;;;17.25;;
12908;SDS011;6522;49.622;6.126;2024-03-08T00:50:47;24.60;;;16.80;;
12908;SDS011;6522;49.622;6.126;2024-03-08T00:53:34;28.15;;;18.65;;
12908;SDS011;6522;49.622;6.126;2024-03-08T00:56:21;23.35;;;19.27;;
12908;SDS011;6522;49.622;6.126;2024-03-08T00:59:07;24.30;;;16.92;;
12908;SDS011;6522;49.622;6.126;2024-03-08T01:01:54;26.33;;;20.37;;
12908;SDS011;6522;49.622;6.126;2024-03-08T01:04:40;22.90;;;17.08;;
12908;SDS011;6522;49.622;6.126;2024-03-08T01:07:27;23.98;;;18.65;;
12908;SDS011;6522;49.622;6.126;2024-03-08T01:10:13;21.85;;;19.00;;
12908;SDS011;6522;49.622;6.126;2024-03-08T01:13:00;21.42;;;17.30;;
12908;SDS011;6522;49.622;6.126;2024-03-08T01:15:47;24.10;;;18.55;;
12908;SDS011;6522;49.622;6.126;2024-03-08T01:18:34;23.65;;;18.02;;
12908;SDS011;6522;49.622;6.126;2024-03-08T01:21:21;31.92;;;19.17;;
12908;SDS011;6522;49.622;6.126;2024-03-08T01:24:08;28.58;;;19.80;;
12908;SDS011;6522;49.622;6.126;2024-03-08T01:26:54;25.50;;;19.05;;
12908;SDS011;6522;49.622;6.126;2024-03-08T01:29:41;25.17;;;16.98;;
12908;SDS011;6522;49.622;6.126;2024-03-08T01:32:28;21.52;;;16.50;;
12908;SDS011;6522;49.622;6.126;2024-03-08T01:35:14;21.95;;;17.02;;
12908;SDS011;6522;49.622;6.126;2024-03-08T01:38:01;21.77;;;17.83;;
12908;SDS011;6522;49.622;6.126;2024-03-08T01:40:48;24.58;;;17.35;;
12908;SDS011;6522;49.622;6.126;2024-03-08T01:43:35;28.02;;;17.48;;
12908;SDS011;6522;49.622;6.126;2024-03-08T01:46:22;28.52;;;18.60;;
12908;SDS011;6522;49.622;6.126;2024-03-08T01:49:09;22.65;;;17.37;;
12908;SDS011;6522;49.622;6.126;2024-03-08T01:51:55;24.45;;;17.92;;
12908;SDS011;6522;49.622;6.126;2024-03-08T01:54:42;28.77;;;18.30;;
12908;SDS011;6522;49.622;6.126;2024-03-08T01:57:29;21.65;;;17.50;;
12908;SDS011;6522;49.622;6.126;2024-03-08T02:00:15;24.58;;;17.45;;
12908;SDS011;6522;49.622;6.126;2024-03-08T02:03:02;25.33;;;16.92;;
12908;SDS011;6522;49.622;6.126;2024-03-08T02:05:49;28.60;;;19.45;;
12908;SDS011;6522;49.622;6.126;2024-03-08T02:08:36;26.55;;;19.37;;
12908;SDS011;6522;49.622;6.126;2024-03-08T02:11:22;25.60;;;20.37;;
12908;SDS011;6522;49.622;6.126;2024-03-08T02:14:09;26.90;;;19.15;;
12908;SDS011;6522;49.622;6.126;2024-03-08T02:17:00;23.25;;;17.00;;
12908;SDS011;6522;49.622;6.126;2024-03-08T02:19:43;28.10;;;17.50;;
12908;SDS011;6522;49.622;6.126;2024-03-08T02:22:30;30.40;;;20.27;;
12908;SDS011;6522;49.622;6.126;2024-03-08T02:25:16;27.58;;;18.77;;
12908;SDS011;6522;49.622;6.126;2024-03-08T02:28:03;30.50;;;20.75;;
12908;SDS011;6522;49.622;6.126;2024-03-08T02:30:51;24.83;;;19.70;;
12908;SDS011;6522;49.622;6.126;2024-03-08T02:33:37;26.60;;;18.08;;
12908;SDS011;6522;49.622;6.126;2024-03-08T02:36:24;31.05;;;19.60;;
12908;SDS011;6522;49.622;6.126;2024-03-08T02:39:11;27.08;;;19.98;;
12908;SDS011;6522;49.622;6.126;2024-03-08T02:41:58;26.85;;;19.08;;
12908;SDS011;6522;49.622;6.126;2024-03-08T02:44:45;27.05;;;19.37;;
12908;SDS011;6522;49.622;6.126;2024-03-08T02:47:32;25.02;;;17.35;;
12908;SDS011;6522;49.622;6.126;2024-03-08T02:50:19;30.37;;;20.88;;
12908;SDS011;6522;49.622;6.126;2024-03-08T02:53:06;25.83;;;19.45;;
12908;SDS011;6522;49.622;6.126;2024-03-08T02:55:52;29.25;;;19.85;;
12908;SDS011;6522;49.622;6.126;2024-03-08T02:58:39;31.12;;;21.02;;
12908;SDS011;6522;49.622;6.126;2024-03-08T03:01:26;34.42;;;20.50;;
12908;SDS011;6522;49.622;6.126;2024-03-08T03:04:13;25.40;;;19.33;;
12908;SDS011;6522;49.622;6.126;2024-03-08T03:07:00;31.15;;;18.70;;
12908;SDS011;6522;49.622;6.126;2024-03-08T03:09:46;30.52;;;21.02;;
12908;SDS011;6522;49.622;6.126;2024-03-08T03:12:33;33.13;;;20.67;;
12908;SDS011;6522;49.622;6.126;2024-03-08T03:15:19;29.58;;;18.92;;
12908;SDS011;6522;49.622;6.126;2024-03-08T03:18:06;26.67;;;19.62;;
12908;SDS011;6522;49.622;6.126;2024-03-08T03:20:53;30.83;;;20.92;;
12908;SDS011;6522;49.622;6.126;2024-03-08T03:23:40;25.90;;;18.27;;
12908;SDS011;6522;49.622;6.126;2024-03-08T03:26:26;27.30;;;19.20;;
12908;SDS011;6522;49.622;6.126;2024-03-08T03:29:13;28.75;;;19.75;;
12908;SDS011;6522;49.622;6.126;2024-03-08T03:32:00;27.37;;;18.50;;
12908;SDS011;6522;49.622;6.126;2024-03-08T03:34:46;25.02;;;18.58;;
12908;SDS011;6522;49.622;6.126;2024-03-08T03:37:33;29.25;;;19.50;;
12908;SDS011;6522;49.622;6.126;2024-03-08T03:40:19;25.70;;;20.00;;
12908;SDS011;6522;49.622;6.126;2024-03-08T03:43:06;25.85;;;21.15;;
12908;SDS011;6522;49.622;6.126;2024-03-08T03:45:53;31.05;;;19.48;;
12908;SDS011;6522;49.622;6.126;2024-03-08T03:48:39;28.42;;;19.42;;
12908;SDS011;6522;49.622;6.126;2024-03-08T03:51:26;25.90;;;18.90;;
12908;SDS011;6522;49.622;6.126;2024-03-08T03:54:13;24.75;;;17.95;;
12908;SDS011;6522;49.622;6.126;2024-03-08T03:57:00;30.08;;;22.90;;
12908;SDS011;6522;49.622;6.126;2024-03-08T03:59:47;31.55;;;22.40;;
12908;SDS011;6522;49.622;6.126;2024-03-08T04:02:34;29.50;;;20.60;;
12908;SDS011;6522;49.622;6.126;2024-03-08T04:05:20;28.77;;;20.95;;
12908;SDS011;6522;49.622;6.126;2024-03-08T04:08:07;29.90;;;23.08;;
12908;SDS011;6522;49.622;6.126;2024-03-08T04:10:54;24.95;;;19.08;;
12908;SDS011;6522;49.622;6.126;2024-03-08T04:13:41;30.65;;;21.58;;
12908;SDS011;6522;49.622;6.126;2024-03-08T04:16:28;30.40;;;20.30;;
12908;SDS011;6522;49.622;6.126;2024-03-08T04:19:14;31.05;;;21.55;;
12908;SDS011;6522;49.622;6.126;2024-03-08T04:22:01;34.28;;;21.35;;
12908;SDS011;6522;49.622;6.126;2024-03-08T04:24:48;30.37;;;20.98;;
12908;SDS011;6522;49.622;6.126;2024-03-08T04:27:35;28.80;;;21.33;;
12908;SDS011;6522;49.622;6.126;2024-03-08T04:30:22;32.75;;;22.23;;
12908;SDS011;6522;49.622;6.126;2024-03-08T04:33:09;36.13;;;21.48;;
12908;SDS011;6522;49.622;6.126;2024-03-08T04:35:56;28.50;;;18.70;;
12908;SDS011;6522;49.622;6.126;2024-03-08T04:38:42;30.25;;;20.45;;
12908;SDS011;6522;49.622;6.126;2024-03-08T04:41:29;31.33;;;21.00;;
12908;SDS011;6522;49.622;6.126;2024-03-08T04:44:19;30.23;;;20.60;;
12908;SDS011;6522;49.622;6.126;2024-03-08T04:47:06;29.52;;;21.30;;
12908;SDS011;6522;49.622;6.126;2024-03-08T04:49:53;30.58;;;22.25;;
12908;SDS011;6522;49.622;6.126;2024-03-08T04:52:39;29.92;;;19.90;;
12908;SDS011;6522;49.622;6.126;2024-03-08T04:55:26;30.27;;;21.87;;
12908;SDS011;6522;49.622;6.126;2024-03-08T04:58:12;30.83;;;21.70;;
12908;SDS011;6522;49.622;6.126;2024-03-08T05:00:59;31.80;;;23.00;;
12908;SDS011;6522;49.622;6.126;2024-03-08T05:03:45;29.90;;;22.67;;
12908;SDS011;6522;49.622;6.126;2024-03-08T05:06:32;31.67;;;21.40;;
12908;SDS011;6522;49.622;6.126;2024-03-08T05:09:19;31.85;;;21.80;;
12908;SDS011;6522;49.622;6.126;2024-03-08T05:12:06;35.92;;;22.65;;
12908;SDS011;6522;49.622;6.126;2024-03-08T05:14:54;32.17;;;21.75;;
12908;SDS011;6522;49.622;6.126;2024-03-08T05:17:40;29.95;;;22.75;;
12908;SDS011;6522;49.622;6.126;2024-03-08T05:20:27;31.80;;;22.92;;
12908;SDS011;6522;49.622;6.126;2024-03-08T05:23:14;32.05;;;23.17;;
12908;SDS011;6522;49.622;6.126;2024-03-08T05:26:00;30.17;;;21.87;;
12908;SDS011;6522;49.622;6.126;2024-03-08T05:28:47;32.05;;;23.70;;
12908;SDS011;6522;49.622;6.126;2024-03-08T05:34:33;32.92;;;24.52;;
12908;SDS011;6522;49.622;6.126;2024-03-08T05:37:20;28.48;;;22.75;;
12908;SDS011;6522;49.622;6.126;2024-03-08T05:40:07;31.67;;;22.20;;
12908;SDS011;6522;49.622;6.126;2024-03-08T05:42:54;27.85;;;20.98;;
12908;SDS011;6522;49.622;6.126;2024-03-08T05:45:41;29.55;;;18.87;;
12908;SDS011;6522;49.622;6.126;2024-03-08T05:48:27;23.35;;;18.30;;
12908;SDS011;6522;49.622;6.126;2024-03-08T05:51:14;26.25;;;19.58;;
12908;SDS011;6522;49.622;6.126;2024-03-08T05:54:01;30.90;;;20.25;;
12908;SDS011;6522;49.622;6.126;2024-03-08T05:56:48;26.75;;;18.15;;
12908;SDS011;6522;49.622;6.126;2024-03-08T05:59:34;27.77;;;19.73;;
12908;SDS011;6522;49.622;6.126;2024-03-08T06:02:21;28.95;;;19.50;;
12908;SDS011;6522;49.622;6.126;2024-03-08T06:05:08;28.92;;;20.85;;
12908;SDS011;6522;49.622;6.126;2024-03-08T06:07:55;27.45;;;20.62;;
12908;SDS011;6522;49.622;6.126;2024-03-08T06:10:42;30.95;;;23.12;;
12908;SDS011;6522;49.622;6.126;2024-03-08T06:13:28;29.95;;;24.45;;
12908;SDS011;6522;49.622;6.126;2024-03-08T06:16:15;28.87;;;23.50;;
12908;SDS011;6522;49.622;6.126;2024-03-08T06:19:02;32.95;;;23.75;;
12908;SDS011;6522;49.622;6.126;2024-03-08T06:21:49;31.67;;;25.40;;
12908;SDS011;6522;49.622;6.126;2024-03-08T06:24:35;34.83;;;21.73;;
12908;SDS011;6522;49.622;6.126;2024-03-08T06:27:22;26.45;;;19.70;;
12908;SDS011;6522;49.622;6.126;2024-03-08T06:30:09;26.73;;;20.25;;
12908;SDS011;6522;49.622;6.126;2024-03-08T06:32:55;28.12;;;23.05;;
12908;SDS011;6522;49.622;6.126;2024-03-08T06:35:42;29.95;;;23.42;;
12908;SDS011;6522;49.622;6.126;2024-03-08T06:38:29;32.67;;;19.98;;
12908;SDS011;6522;49.622;6.126;2024-03-08T06:41:15;24.37;;;19.02;;
12908;SDS011;6522;49.622;6.126;2024-03-08T06:44:02;27.05;;;19.50;;
12908;SDS011;6522;49.622;6.126;2024-03-08T06:46:49;29.20;;;20.23;;
12908;SDS011;6522;49.622;6.126;2024-03-08T06:49:35;27.15;;;21.70;;
12908;SDS011;6522;49.622;6.126;2024-03-08T06:52:22;36.05;;;24.25;;
12908;SDS011;6522;49.622;6.126;2024-03-08T06:55:09;31.87;;;23.58;;
12908;SDS011;6522;49.622;6.126;2024-03-08T06:57:58;32.47;;;23.00;;
12908;SDS011;6522;49.622;6.126;2024-03-08T07:00:45;37.53;;;21.00;;
12908;SDS011;6522;49.622;6.126;2024-03-08T07:03:32;31.15;;;23.30;;
12908;SDS011;6522;49.622;6.126;2024-03-08T07:06:18;30.80;;;22.33;;
12908;SDS011;6522;49.622;6.126;2024-03-08T07:09:05;29.77;;;21.25;;
12908;SDS011;6522;49.622;6.126;2024-03-08T07:11:52;29.80;;;21.15;;
12908;SDS011;6522;49.622;6.126;2024-03-08T07:14:39;29.37;;;21.45;;
12908;SDS011;6522;49.622;6.126;2024-03-08T07:17:28;25.95;;;18.40;;
12908;SDS011;6522;49.622;6.126;2024-03-08T07:20:15;26.67;;;20.62;;
12908;SDS011;6522;49.622;6.126;2024-03-08T07:23:02;28.17;;;21.70;;
12908;SDS011;6522;49.622;6.126;2024-03-08T07:25:49;28.08;;;20.30;;
12908;SDS011;6522;49.622;6.126;2024-03-08T07:28:36;26.75;;;22.67;;
12908;SDS011;6522;49.622;6.126;2024-03-08T07:31:23;28.15;;;21.90;;
12908;SDS011;6522;49.622;6.126;2024-03-08T07:34:10;26.30;;;22.52;;
12908;SDS011;6522;49.622;6.126;2024-03-08T07:36:57;31.58;;;21.75;;
12908;SDS011;6522;49.622;6.126;2024-03-08T07:39:44;27.27;;;21.12;;
12908;SDS011;6522;49.622;6.126;2024-03-08T07:42:31;29.55;;;22.70;;
12908;SDS011;6522;49.622;6.126;2024-03-08T07:45:18;26.70;;;23.42;;
12908;SDS011;6522;49.622;6.126;2024-03-08T07:48:05;25.92;;;21.75;;
12908;SDS011;6522;49.622;6.126;2024-03-08T07:50:52;26.80;;;21.30;;
12908;SDS011;6522;49.622;6.126;2024-03-08T07:53:39;26.37;;;21.75;;
12908;SDS011;6522;49.622;6.126;2024-03-08T07:56:26;31.73;;;24.87;;
12908;SDS011;6522;49.622;6.126;2024-03-08T07:59:13;24.12;;;21.75;;
12908;SDS011;6522;49.622;6.126;2024-03-08T08:02:00;25.95;;;23.25;;
12908;SDS011;6522;49.622;6.126;2024-03-08T08:04:47;24.77;;;22.30;;
12908;SDS011;6522;49.622;6.126;2024-03-08T08:07:34;26.67;;;23.12;;
12908;SDS011;6522;49.622;6.126;2024-03-08T08:10:21;25.40;;;22.77;;
12908;SDS011;6522;49.622;6.126;2024-03-08T08:13:10;26.67;;;24.08;;
12908;SDS011;6522;49.622;6.126;2024-03-08T08:15:56;25.52;;;23.12;;
12908;SDS011;6522;49.622;6.126;2024-03-08T08:18:44;26.17;;;23.58;;
12908;SDS011;6522;49.622;6.126;2024-03-08T08:21:31;26.98;;;24.40;;
12908;SDS011;6522;49.622;6.126;2024-03-08T08:24:17;26.67;;;24.40;;
12908;SDS011;6522;49.622;6.126;2024-03-08T08:27:04;26.33;;;24.12;;
12908;SDS011;6522;49.622;6.126;2024-03-08T08:29:51;28.73;;;26.35;;
12908;SDS011;6522;49.622;6.126;2024-03-08T08:32:38;27.33;;;25.23;;
12908;SDS011;6522;49.622;6.126;2024-03-08T08:35:27;29.55;;;26.85;;
12908;SDS011;6522;49.622;6.126;2024-03-08T08:38:14;29.58;;;26.77;;
12908;SDS011;6522;49.622;6.126;2024-03-08T08:41:01;30.35;;;27.27;;
12908;SDS011;6522;49.622;6.126;2024-03-08T08:43:48;28.35;;;26.05;;
12908;SDS011;6522;49.622;6.126;2024-03-08T08:46:35;30.55;;;27.90;;
12908;SDS011;6522;49.622;6.126;2024-03-08T08:49:21;30.27;;;27.00;;
12908;SDS011;6522;49.622;6.126;2024-03-08T08:52:08;30.85;;;28.20;;
12908;SDS011;6522;49.622;6.126;2024-03-08T08:54:55;28.45;;;26.25;;
12908;SDS011;6522;49.622;6.126;2024-03-08T08:57:41;30.23;;;27.23;;
12908;SDS011;6522;49.622;6.126;2024-03-08T09:00:28;30.20;;;27.62;;
12908;SDS011;6522;49.622;6.126;2024-03-08T09:03:15;25.88;;;23.55;;
12908;SDS011;6522;49.622;6.126;2024-03-08T09:06:03;29.67;;;27.35;;
12908;SDS011;6522;49.622;6.126;2024-03-08T09:08:49;31.52;;;28.55;;
12908;SDS011;6522;49.622;6.126;2024-03-08T09:11:35;32.40;;;29.75;;
12908;SDS011;6522;49.622;6.126;2024-03-08T09:14:22;31.25;;;28.62;;
12908;SDS011;6522;49.622;6.126;2024-03-08T09:17:09;31.37;;;28.67;;
12908;SDS011;6522;49.622;6.126;2024-03-08T09:19:56;31.45;;;29.05;;
12908;SDS011;6522;49.622;6.126;2024-03-08T09:22:46;32.05;;;29.12;;
12908;SDS011;6522;49.622;6.126;2024-03-08T09:25:32;30.73;;;28.33;;
12908;SDS011;6522;49.622;6.126;2024-03-08T09:28:19;31.40;;;28.98;;
12908;SDS011;6522;49.622;6.126;2024-03-08T09:31:06;32.58;;;30.08;;
12908;SDS011;6522;49.622;6.126;2024-03-08T09:33:53;32.83;;;30.25;;
12908;SDS011;6522;49.622;6.126;2024-03-08T09:36:41;31.42;;;28.62;;
12908;SDS011;6522;49.622;6.126;2024-03-08T09:39:27;33.10;;;30.73;;
12908;SDS011;6522;49.622;6.126;2024-03-08T09:42:15;33.78;;;30.90;;
12908;SDS011;6522;49.622;6.126;2024-03-08T09:45:01;34.08;;;31.77;;
12908;SDS011;6522;49.622;6.126;2024-03-08T09:47:48;34.50;;;31.75;;
12908;SDS011;6522;49.622;6.126;2024-03-08T09:50:38;35.65;;;32.85;;
12908;SDS011;6522;49.622;6.126;2024-03-08T09:53:24;34.72;;;31.92;;
12908;SDS011;6522;49.622;6.126;2024-03-08T09:56:11;34.35;;;31.90;;
12908;SDS011;6522;49.622;6.126;2024-03-08T09:58:58;36.10;;;33.53;;
12908;SDS011;6522;49.622;6.126;2024-03-08T10:02:03;32.60;;;30.30;;
12908;SDS011;6522;49.622;6.126;2024-03-08T10:04:51;32.17;;;30.03;;
12908;SDS011;6522;49.622;6.126;2024-03-08T10:07:36;30.98;;;28.67;;
12908;SDS011;6522;49.622;6.126;2024-03-08T10:10:23;33.47;;;31.07;;
12908;SDS011;6522;49.622;6.126;2024-03-08T10:13:10;30.08;;;27.67;;
12908;SDS011;6522;49.622;6.126;2024-03-08T10:15:56;30.90;;;28.50;;
12908;SDS011;6522;49.622;6.126;2024-03-08T10:18:44;32.87;;;30.57;;
12908;SDS011;6522;49.622;6.126;2024-03-08T10:21:30;30.45;;;28.23;;
12908;SDS011;6522;49.622;6.126;2024-03-08T10:24:17;33.43;;;31.10;;
12908;SDS011;6522;49.622;6.126;2024-03-08T10:27:04;32.43;;;30.20;;
12908;SDS011;6522;49.622;6.126;2024-03-08T10:29:50;31.00;;;28.50;;
12908;SDS011;6522;49.622;6.126;2024-03-08T10:32:37;32.73;;;30.33;;
12908;SDS011;6522;49.622;6.126;2024-03-08T10:35:24;32.00;;;29.55;;
12908;SDS011;6522;49.622;6.126;2024-03-08T10:38:11;29.90;;;27.70;;
12908;SDS011;6522;49.622;6.126;2024-03-08T10:40:58;33.27;;;30.87;;
12908;SDS011;6522;49.622;6.126;2024-03-08T10:43:52;34.00;;;31.80;;
12908;SDS011;6522;49.622;6.126;2024-03-08T10:46:51;34.57;;;31.93;;
12908;SDS011;6522;49.622;6.126;2024-03-08T10:49:37;32.33;;;30.13;;
12908;SDS011;6522;49.622;6.126;2024-03-08T10:52:23;33.40;;;31.00;;
12908;SDS011;6522;49.622;6.126;2024-03-08T10:55:10;34.93;;;32.00;;
12908;SDS011;6522;49.622;6.126;2024-03-08T10:57:57;32.73;;;30.50;;
12908;SDS011;6522;49.622;6.126;2024-03-08T11:00:44;31.33;;;29.10;;
12908;SDS011;6522;49.622;6.126;2024-03-08T11:06:30;34.10;;;31.37;;
12908;SDS011;6522;49.622;6.126;2024-03-08T11:09:28;31.83;;;29.80;;
12908;SDS011;6522;49.622;6.126;2024-03-08T11:12:25;32.73;;;30.43;;
12908;SDS011;6522;49.622;6.126;2024-03-08T11:15:11;33.50;;;31.03;;
12908;SDS011;6522;49.622;6.126;2024-03-08T11:17:58;32.30;;;29.80;;
12908;SDS011;6522;49.622;6.126;2024-03-08T11:20:45;29.07;;;27.07;;
12908;SDS011;6522;49.622;6.126;2024-03-08T11:23:31;33.40;;;30.67;;
12908;SDS011;6522;49.622;6.126;2024-03-08T11:26:19;30.45;;;28.15;;
12908;SDS011;6522;49.622;6.126;2024-03-08T11:32:11;36.13;;;33.57;;
12908;SDS011;6522;49.622;6.126;2024-03-08T11:34:57;31.37;;;29.13;;
12908;SDS011;6522;49.622;6.126;2024-03-08T11:37:44;35.40;;;32.97;;
12908;SDS011;6522;49.622;6.126;2024-03-08T11:40:30;31.47;;;29.27;;
12908;SDS011;6522;49.622;6.126;2024-03-08T11:43:17;34.10;;;31.70;;
12908;SDS011;6522;49.622;6.126;2024-03-08T11:46:07;31.35;;;29.15;;
12908;SDS011;6522;49.622;6.126;2024-03-08T11:48:54;34.00;;;31.20;;
12908;SDS011;6522;49.622;6.126;2024-03-08T11:51:40;32.90;;;30.67;;
12908;SDS011;6522;49.622;6.126;2024-03-08T11:54:27;33.20;;;30.90;;
12908;SDS011;6522;49.622;6.126;2024-03-08T11:57:14;30.17;;;28.08;;
12908;SDS011;6522;49.622;6.126;2024-03-08T12:00:01;32.80;;;30.27;;
12908;SDS011;6522;49.622;6.126;2024-03-08T12:03:00;31.10;;;28.83;;
12908;SDS011;6522;49.622;6.126;2024-03-08T12:05:36;33.20;;;30.77;;
12908;SDS011;6522;49.622;6.126;2024-03-08T12:08:23;35.10;;;32.30;;
12908;SDS011;6522;49.622;6.126;2024-03-08T12:11:10;32.73;;;30.60;;
12908;SDS011;6522;49.622;6.126;2024-03-08T12:13:56;30.37;;;28.27;;
12908;SDS011;6522;49.622;6.126;2024-03-08T12:16:43;34.03;;;31.73;;
12908;SDS011;6522;49.622;6.126;2024-03-08T12:19:30;30.70;;;28.30;;
12908;SDS011;6522;49.622;6.126;2024-03-08T12:22:16;32.83;;;30.43;;
12908;SDS011;6522;49.622;6.126;2024-03-08T12:25:04;30.23;;;28.08;;
12908;SDS011;6522;49.622;6.126;2024-03-08T12:27:50;31.23;;;29.23;;
12908;SDS011;6522;49.622;6.126;2024-03-08T12:30:43;33.87;;;31.47;;
12908;SDS011;6522;49.622;6.126;2024-03-08T12:33:24;33.63;;;31.33;;
12908;SDS011;6522;49.622;6.126;2024-03-08T12:36:10;28.98;;;26.80;;
12908;SDS011;6522;49.622;6.126;2024-03-08T12:38:57;32.47;;;30.27;;
12908;SDS011;6522;49.622;6.126;2024-03-08T12:41:44;29.63;;;27.43;;
12908;SDS011;6522;49.622;6.126;2024-03-08T12:44:30;33.40;;;31.10;;
12908;SDS011;6522;49.622;6.126;2024-03-08T12:47:17;30.23;;;28.17;;
12908;SDS011;6522;49.622;6.126;2024-03-08T12:50:04;29.20;;;27.10;;
12908;SDS011;6522;49.622;6.126;2024-03-08T12:52:50;29.20;;;27.10;;
12908;SDS011;6522;49.622;6.126;2024-03-08T12:55:37;31.17;;;29.17;;
12908;SDS011;6522;49.622;6.126;2024-03-08T12:58:24;28.60;;;26.50;;
12908;SDS011;6522;49.622;6.126;2024-03-08T13:01:10;30.30;;;28.20;;
12908;SDS011;6522;49.622;6.126;2024-03-08T13:03:57;34.80;;;32.30;;
12908;SDS011;6522;49.622;6.126;2024-03-08T13:06:44;31.10;;;28.90;;
12908;SDS011;6522;49.622;6.126;2024-03-08T13:09:31;31.73;;;29.33;;
12908;SDS011;6522;49.622;6.126;2024-03-08T13:12:17;33.97;;;31.53;;
12908;SDS011;6522;49.622;6.126;2024-03-08T13:15:04;30.98;;;28.52;;
12908;SDS011;6522;49.622;6.126;2024-03-08T13:17:51;30.00;;;27.90;;
12908;SDS011;6522;49.622;6.126;2024-03-08T13:20:38;30.62;;;28.33;;
12908;SDS011;6522;49.622;6.126;2024-03-08T13:23:25;32.37;;;30.17;;
12908;SDS011;6522;49.622;6.126;2024-03-08T13:26:13;30.20;;;28.00;;
12908;SDS011;6522;49.622;6.126;2024-03-08T13:28:59;29.87;;;27.77;;
12908;SDS011;6522;49.622;6.126;2024-03-08T13:31:45;31.25;;;28.95;;
12908;SDS011;6522;49.622;6.126;2024-03-08T13:34:32;33.50;;;31.10;;
12908;SDS011;6522;49.622;6.126;2024-03-08T13:37:19;30.30;;;28.20;;
12908;SDS011;6522;49.622;6.126;2024-03-08T13:40:06;30.17;;;27.87;;
12908;SDS011;6522;49.622;6.126;2024-03-08T13:42:52;30.90;;;28.70;;
12908;SDS011;6522;49.622;6.126;2024-03-08T13:45:39;31.70;;;29.70;;
12908;SDS011;6522;49.622;6.126;2024-03-08T13:48:26;30.70;;;28.50;;
12908;SDS011;6522;49.622;6.126;2024-03-08T13:51:13;31.20;;;28.83;;
12908;SDS011;6522;49.622;6.126;2024-03-08T13:54:00;32.20;;;29.90;;
12908;SDS011;6522;49.622;6.126;2024-03-08T13:56:47;30.30;;;28.10;;
12908;SDS011;6522;49.622;6.126;2024-03-08T13:59:33;29.60;;;27.50;;
12908;SDS011;6522;49.622;6.126;2024-03-08T14:02:20;33.80;;;31.40;;
12908;SDS011;6522;49.622;6.126;2024-03-08T14:05:07;30.13;;;27.83;;
12908;SDS011;6522;49.622;6.126;2024-03-08T14:07:54;28.50;;;26.50;;
12908;SDS011;6522;49.622;6.126;2024-03-08T14:10:40;30.97;;;28.80;;
12908;SDS011;6522;49.622;6.126;2024-03-08T14:13:28;30.73;;;28.52;;
12908;SDS011;6522;49.622;6.126;2024-03-08T14:16:14;33.60;;;31.50;;
12908;SDS011;6522;49.622;6.126;2024-03-08T14:19:01;29.42;;;27.35;;
12908;SDS011;6522;49.622;6.126;2024-03-08T14:21:48;29.10;;;27.10;;
12908;SDS011;6522;49.622;6.126;2024-03-08T14:24:34;33.50;;;31.20;;
12908;SDS011;6522;49.622;6.126;2024-03-08T14:27:21;30.50;;;28.30;;
12908;SDS011;6522;49.622;6.126;2024-03-08T14:30:08;36.17;;;33.53;;
12908;SDS011;6522;49.622;6.126;2024-03-08T14:32:55;31.83;;;29.52;;
12908;SDS011;6522;49.622;6.126;2024-03-08T14:35:42;32.50;;;30.20;;
12908;SDS011;6522;49.622;6.126;2024-03-08T14:38:29;34.03;;;31.60;;
12908;SDS011;6522;49.622;6.126;2024-03-08T14:41:15;29.95;;;27.75;;
12908;SDS011;6522;49.622;6.126;2024-03-08T14:44:02;31.92;;;29.63;;
12908;SDS011;6522;49.622;6.126;2024-03-08T14:46:49;36.07;;;33.57;;
12908;SDS011;6522;49.622;6.126;2024-03-08T14:49:36;31.67;;;29.17;;
12908;SDS011;6522;49.622;6.126;2024-03-08T14:52:22;31.50;;;29.17;;
12908;SDS011;6522;49.622;6.126;2024-03-08T14:55:15;34.47;;;31.90;;
12908;SDS011;6522;49.622;6.126;2024-03-08T14:58:01;29.77;;;27.67;;
12908;SDS011;6522;49.622;6.126;2024-03-08T15:00:48;31.80;;;29.60;;
12908;SDS011;6522;49.622;6.126;2024-03-08T15:03:35;32.50;;;30.10;;
12908;SDS011;6522;49.622;6.126;2024-03-08T15:06:22;32.63;;;30.33;;
12908;SDS011;6522;49.622;6.126;2024-03-08T15:09:08;30.75;;;28.45;;
12908;SDS011;6522;49.622;6.126;2024-03-08T15:12:01;31.15;;;28.77;;
12908;SDS011;6522;49.622;6.126;2024-03-08T15:14:47;32.80;;;30.43;;
12908;SDS011;6522;49.622;6.126;2024-03-08T15:17:34;29.55;;;27.40;;
12908;SDS011;6522;49.622;6.126;2024-03-08T15:20:21;28.87;;;26.87;;
12908;SDS011;6522;49.622;6.126;2024-03-08T15:23:07;32.10;;;29.90;;
12908;SDS011;6522;49.622;6.126;2024-03-08T15:25:54;30.52;;;28.23;;
12908;SDS011;6522;49.622;6.126;2024-03-08T15:28:41;29.52;;;27.42;;
12908;SDS011;6522;49.622;6.126;2024-03-08T15:31:28;30.60;;;28.50;;
12908;SDS011;6522;49.622;6.126;2024-03-08T15:34:15;29.50;;;27.00;;
12908;SDS011;6522;49.622;6.126;2024-03-08T15:37:02;31.62;;;29.42;;
12908;SDS011;6522;49.622;6.126;2024-03-08T15:39:48;31.20;;;29.05;;
12908;SDS011;6522;49.622;6.126;2024-03-08T15:42:35;32.40;;;30.02;;
12908;SDS011;6522;49.622;6.126;2024-03-08T15:45:22;32.67;;;30.30;;
12908;SDS011;6522;49.622;6.126;2024-03-08T15:48:14;32.20;;;29.90;;
12908;SDS011;6522;49.622;6.126;2024-03-08T15:51:02;33.67;;;31.17;;
12908;SDS011;6522;49.622;6.126;2024-03-08T15:53:54;32.58;;;29.80;;
12908;SDS011;6522;49.622;6.126;2024-03-08T15:56:40;31.58;;;29.27;;
12908;SDS011;6522;49.622;6.126;2024-03-08T15:59:27;32.10;;;29.60;;
12908;SDS011;6522;49.622;6.126;2024-03-08T16:02:14;34.05;;;31.50;;
12908;SDS011;6522;49.622;6.126;2024-03-08T16:05:00;31.90;;;29.60;;
12908;SDS011;6522;49.622;6.126;2024-03-08T16:07:47;32.10;;;29.92;;
12908;SDS011;6522;49.622;6.126;2024-03-08T16:10:34;30.83;;;28.42;;
12908;SDS011;6522;49.622;6.126;2024-03-08T16:13:21;30.05;;;27.67;;
12908;SDS011;6522;49.622;6.126;2024-03-08T16:16:07;31.05;;;28.85;;
12908;SDS011;6522;49.622;6.126;2024-03-08T16:18:54;32.55;;;30.15;;
12908;SDS011;6522;49.622;6.126;2024-03-08T16:21:41;27.70;;;25.20;;
12908;SDS011;6522;49.622;6.126;2024-03-08T16:24:27;32.25;;;29.83;;
12908;SDS011;6522;49.622;6.126;2024-03-08T16:27:14;32.38;;;29.98;;
12908;SDS011;6522;49.622;6.126;2024-03-08T16:30:01;32.42;;;29.92;;
12908;SDS011;6522;49.622;6.126;2024-03-08T16:32:48;31.62;;;29.05;;
12908;SDS011;6522;49.622;6.126;2024-03-08T16:35:35;32.90;;;30.20;;
12908;SDS011;6522;49.622;6.126;2024-03-08T16:38:25;31.48;;;29.17;;